sensor_id;sensor_type;location;lat;lon;timestamp;P1;durP1;ratioP1;P2;durP2;ratioP2
63320;SDS011;49449;48.800;9.534;2024-03-08T00:00:08;18.48;;;12.43;;
63320;SDS011;49449;48.800;9.534;2024-03-08T00:02:39;17.50;;;12.45;;
63320;SDS011;49449;48.800;9.534;2024-03-08T00:05:07;17.70;;;13.27;;
63320;SDS011;49449;48.800;9.534;2024-03-08T00:07:36;17.25;;;13.77;;
63320;SDS011;49449;48.800;9.534;2024-03-08T00:10:04;18.33;;;13.43;;
63320;SDS011;49449;48.800;9.534;2024-03-08T00:12:33;18.20;;;13.70;;
63320;SDS011;49449;48.800;9.534;2024-03-08T00:15:03;19.08;;;13.80;;
63320;SDS011;49449;48.800;9.534;2024-03-08T00:17:32;18.45;;;13.55;;
63320;SDS011;49449;48.800;9.534;2024-03-08T00:20:00;19.95;;;14.00;;
63320;SDS011;49449;48.800;9.534;2024-03-08T00:22:29;17.83;;;13.35;;
63320;SDS011;49449;48.800;9.534;2024-03-08T00:24:57;18.90;;;13.75;;
63320;SDS011;49449;48.800;9.534;2024-03-08T00:27:25;17.75;;;14.15;;
63320;SDS011;49449;48.800;9.534;2024-03-08T00:29:53;16.58;;;13.43;;
63320;SDS011;49449;48.800;9.534;2024-03-08T00:32:22;19.67;;;13.82;;
63320;SDS011;49449;48.800;9.534;2024-03-08T00:34:51;18.92;;;13.63;;
63320;SDS011;49449;48.800;9.534;2024-03-08T00:37:19;18.70;;;13.70;;
63320;SDS011;49449;48.800;9.534;2024-03-08T00:39:48;19.55;;;13.70;;
63320;SDS011;49449;48.800;9.534;2024-03-08T00:42:16;18.77;;;14.30;;
63320;SDS011;49449;48.800;9.534;2024-03-08T00:44:44;17.45;;;11.68;;
63320;SDS011;49449;48.800;9.534;2024-03-08T00:47:12;17.85;;;14.10;;
63320;SDS011;49449;48.800;9.534;2024-03-08T00:49:42;19.50;;;13.75;;
63320;SDS011;49449;48.800;9.534;2024-03-08T00:52:10;19.02;;;13.77;;
63320;SDS011;49449;48.800;9.534;2024-03-08T00:54:37;16.77;;;12.80;;
63320;SDS011;49449;48.800;9.534;2024-03-08T00:57:05;16.20;;;11.93;;
63320;SDS011;49449;48.800;9.534;2024-03-08T00:59:33;16.75;;;11.07;;
63320;SDS011;49449;48.800;9.534;2024-03-08T01:02:01;16.23;;;11.77;;
63320;SDS011;49449;48.800;9.534;2024-03-08T01:04:29;18.00;;;12.40;;
63320;SDS011;49449;48.800;9.534;2024-03-08T01:06:58;17.95;;;13.60;;
63320;SDS011;49449;48.800;9.534;2024-03-08T01:09:26;17.98;;;13.23;;
63320;SDS011;49449;48.800;9.534;2024-03-08T01:11:55;19.80;;;13.60;;
63320;SDS011;49449;48.800;9.534;2024-03-08T01:14:23;17.60;;;13.25;;
63320;SDS011;49449;48.800;9.534;2024-03-08T01:16:52;19.05;;;13.88;;
63320;SDS011;49449;48.800;9.534;2024-03-08T01:19:21;17.60;;;13.82;;
63320;SDS011;49449;48.800;9.534;2024-03-08T01:21:50;18.33;;;12.93;;
63320;SDS011;49449;48.800;9.534;2024-03-08T01:24:19;18.02;;;12.68;;
63320;SDS011;49449;48.800;9.534;2024-03-08T01:26:47;17.65;;;12.82;;
63320;SDS011;49449;48.800;9.534;2024-03-08T01:29:14;16.00;;;12.73;;
63320;SDS011;49449;48.800;9.534;2024-03-08T01:31:42;17.55;;;13.50;;
63320;SDS011;49449;48.800;9.534;2024-03-08T01:34:10;16.02;;;12.15;;
63320;SDS011;49449;48.800;9.534;2024-03-08T01:36:38;16.70;;;12.13;;
63320;SDS011;49449;48.800;9.534;2024-03-08T01:39:06;16.27;;;12.55;;
63320;SDS011;49449;48.800;9.534;2024-03-08T01:41:36;16.67;;;11.57;;
63320;SDS011;49449;48.800;9.534;2024-03-08T01:44:03;16.15;;;12.20;;
63320;SDS011;49449;48.800;9.534;2024-03-08T01:46:33;19.05;;;12.70;;
63320;SDS011;49449;48.800;9.534;2024-03-08T01:49:02;15.02;;;10.70;;
63320;SDS011;49449;48.800;9.534;2024-03-08T01:51:30;15.77;;;12.10;;
63320;SDS011;49449;48.800;9.534;2024-03-08T01:53:58;16.50;;;11.43;;
63320;SDS011;49449;48.800;9.534;2024-03-08T01:59:00;16.27;;;11.90;;
63320;SDS011;49449;48.800;9.534;2024-03-08T02:01:28;16.00;;;11.73;;
63320;SDS011;49449;48.800;9.534;2024-03-08T02:03:56;17.58;;;11.30;;
63320;SDS011;49449;48.800;9.534;2024-03-08T02:06:24;16.52;;;11.90;;
63320;SDS011;49449;48.800;9.534;2024-03-08T02:08:51;16.90;;;13.15;;
63320;SDS011;49449;48.800;9.534;2024-03-08T02:11:20;17.58;;;11.90;;
63320;SDS011;49449;48.800;9.534;2024-03-08T02:13:48;15.00;;;12.18;;
63320;SDS011;49449;48.800;9.534;2024-03-08T02:16:22;17.52;;;12.27;;
63320;SDS011;49449;48.800;9.534;2024-03-08T02:18:50;13.93;;;11.73;;
63320;SDS011;49449;48.800;9.534;2024-03-08T02:21:19;14.80;;;11.43;;
63320;SDS011;49449;48.800;9.534;2024-03-08T02:23:47;14.65;;;11.60;;
63320;SDS011;49449;48.800;9.534;2024-03-08T02:26:18;14.57;;;11.55;;
63320;SDS011;49449;48.800;9.534;2024-03-08T02:28:46;12.93;;;10.98;;
63320;SDS011;49449;48.800;9.534;2024-03-08T02:31:14;14.23;;;10.68;;
63320;SDS011;49449;48.800;9.534;2024-03-08T02:33:42;14.18;;;11.48;;
63320;SDS011;49449;48.800;9.534;2024-03-08T02:36:10;14.40;;;11.30;;
63320;SDS011;49449;48.800;9.534;2024-03-08T02:38:40;14.65;;;11.77;;
63320;SDS011;49449;48.800;9.534;2024-03-08T02:41:08;17.30;;;11.18;;
63320;SDS011;49449;48.800;9.534;2024-03-08T02:43:36;16.08;;;11.52;;
63320;SDS011;49449;48.800;9.534;2024-03-08T02:46:04;15.50;;;11.93;;
63320;SDS011;49449;48.800;9.534;2024-03-08T02:48:32;13.60;;;10.65;;
63320;SDS011;49449;48.800;9.534;2024-03-08T02:51:00;14.05;;;11.00;;
63320;SDS011;49449;48.800;9.534;2024-03-08T02:53:28;13.68;;;11.02;;
63320;SDS011;49449;48.800;9.534;2024-03-08T02:55:57;15.27;;;11.07;;
63320;SDS011;49449;48.800;9.534;2024-03-08T02:58:25;14.40;;;11.00;;
63320;SDS011;49449;48.800;9.534;2024-03-08T03:00:53;17.50;;;10.40;;
63320;SDS011;49449;48.800;9.534;2024-03-08T03:03:23;13.02;;;9.13;;
63320;SDS011;49449;48.800;9.534;2024-03-08T03:05:53;14.63;;;11.25;;
63320;SDS011;49449;48.800;9.534;2024-03-08T03:08:21;13.82;;;9.95;;
63320;SDS011;49449;48.800;9.534;2024-03-08T03:10:50;16.73;;;11.30;;
63320;SDS011;49449;48.800;9.534;2024-03-08T03:13:19;13.23;;;8.85;;
63320;SDS011;49449;48.800;9.534;2024-03-08T03:15:47;15.23;;;11.95;;
63320;SDS011;49449;48.800;9.534;2024-03-08T03:18:14;16.20;;;11.38;;
63320;SDS011;49449;48.800;9.534;2024-03-08T03:20:43;14.57;;;10.68;;
63320;SDS011;49449;48.800;9.534;2024-03-08T03:23:11;14.05;;;10.30;;
63320;SDS011;49449;48.800;9.534;2024-03-08T03:25:41;16.75;;;11.02;;
63320;SDS011;49449;48.800;9.534;2024-03-08T03:28:09;15.55;;;12.00;;
63320;SDS011;49449;48.800;9.534;2024-03-08T03:30:38;15.13;;;10.88;;
63320;SDS011;49449;48.800;9.534;2024-03-08T03:33:06;14.88;;;10.77;;
63320;SDS011;49449;48.800;9.534;2024-03-08T03:35:34;15.52;;;11.60;;
63320;SDS011;49449;48.800;9.534;2024-03-08T03:38:03;14.70;;;10.55;;
63320;SDS011;49449;48.800;9.534;2024-03-08T03:40:33;15.48;;;11.77;;
63320;SDS011;49449;48.800;9.534;2024-03-08T03:43:01;16.67;;;11.77;;
63320;SDS011;49449;48.800;9.534;2024-03-08T03:45:30;14.50;;;11.43;;
63320;SDS011;49449;48.800;9.534;2024-03-08T03:48:03;14.35;;;10.75;;
63320;SDS011;49449;48.800;9.534;2024-03-08T03:50:35;16.48;;;12.45;;
63320;SDS011;49449;48.800;9.534;2024-03-08T03:53:03;14.75;;;11.43;;
63320;SDS011;49449;48.800;9.534;2024-03-08T03:55:34;15.50;;;11.63;;
63320;SDS011;49449;48.800;9.534;2024-03-08T03:58:03;14.98;;;12.52;;
63320;SDS011;49449;48.800;9.534;2024-03-08T04:00:31;15.40;;;11.23;;
63320;SDS011;49449;48.800;9.534;2024-03-08T04:02:59;13.07;;;9.75;;
63320;SDS011;49449;48.800;9.534;2024-03-08T04:05:29;17.08;;;11.55;;
63320;SDS011;49449;48.800;9.534;2024-03-08T04:07:58;14.52;;;10.90;;
63320;SDS011;49449;48.800;9.534;2024-03-08T04:10:25;14.38;;;10.77;;
63320;SDS011;49449;48.800;9.534;2024-03-08T04:12:53;15.57;;;11.77;;
63320;SDS011;49449;48.800;9.534;2024-03-08T04:15:23;14.77;;;11.55;;
63320;SDS011;49449;48.800;9.534;2024-03-08T04:17:50;16.58;;;13.02;;
63320;SDS011;49449;48.800;9.534;2024-03-08T04:20:20;18.48;;;13.63;;
63320;SDS011;49449;48.800;9.534;2024-03-08T04:22:50;16.80;;;11.85;;
63320;SDS011;49449;48.800;9.534;2024-03-08T04:25:17;16.75;;;11.07;;
63320;SDS011;49449;48.800;9.534;2024-03-08T04:27:46;16.77;;;12.20;;
63320;SDS011;49449;48.800;9.534;2024-03-08T04:30:15;18.20;;;11.52;;
63320;SDS011;49449;48.800;9.534;2024-03-08T04:32:44;14.32;;;11.48;;
63320;SDS011;49449;48.800;9.534;2024-03-08T04:35:11;16.27;;;11.52;;
63320;SDS011;49449;48.800;9.534;2024-03-08T04:37:41;16.08;;;12.10;;
63320;SDS011;49449;48.800;9.534;2024-03-08T04:40:10;15.45;;;11.18;;
63320;SDS011;49449;48.800;9.534;2024-03-08T04:42:39;15.27;;;13.02;;
63320;SDS011;49449;48.800;9.534;2024-03-08T04:45:08;15.82;;;12.60;;
63320;SDS011;49449;48.800;9.534;2024-03-08T04:47:37;17.30;;;12.55;;
63320;SDS011;49449;48.800;9.534;2024-03-08T04:50:05;17.13;;;12.55;;
63320;SDS011;49449;48.800;9.534;2024-03-08T04:52:35;18.05;;;12.85;;
63320;SDS011;49449;48.800;9.534;2024-03-08T04:55:03;16.27;;;12.68;;
63320;SDS011;49449;48.800;9.534;2024-03-08T04:57:33;15.95;;;12.15;;
63320;SDS011;49449;48.800;9.534;2024-03-08T05:00:02;14.98;;;11.18;;
63320;SDS011;49449;48.800;9.534;2024-03-08T05:02:37;17.35;;;13.07;;
63320;SDS011;49449;48.800;9.534;2024-03-08T05:05:05;16.38;;;11.57;;
63320;SDS011;49449;48.800;9.534;2024-03-08T05:07:33;14.93;;;10.32;;
63320;SDS011;49449;48.800;9.534;2024-03-08T05:10:04;18.80;;;13.15;;
63320;SDS011;49449;48.800;9.534;2024-03-08T05:12:39;18.88;;;12.55;;
63320;SDS011;49449;48.800;9.534;2024-03-08T05:15:07;16.67;;;12.07;;
63320;SDS011;49449;48.800;9.534;2024-03-08T05:17:35;18.58;;;13.25;;
63320;SDS011;49449;48.800;9.534;2024-03-08T05:20:03;14.98;;;11.18;;
63320;SDS011;49449;48.800;9.534;2024-03-08T05:22:34;15.23;;;11.68;;
63320;SDS011;49449;48.800;9.534;2024-03-08T05:25:02;14.10;;;10.20;;
63320;SDS011;49449;48.800;9.534;2024-03-08T05:27:30;16.92;;;11.32;;
63320;SDS011;49449;48.800;9.534;2024-03-08T05:29:59;15.55;;;12.43;;
63320;SDS011;49449;48.800;9.534;2024-03-08T05:32:27;14.88;;;10.95;;
63320;SDS011;49449;48.800;9.534;2024-03-08T05:34:56;14.38;;;11.00;;
63320;SDS011;49449;48.800;9.534;2024-03-08T05:37:24;16.90;;;11.93;;
63320;SDS011;49449;48.800;9.534;2024-03-08T05:39:52;13.50;;;10.20;;
63320;SDS011;49449;48.800;9.534;2024-03-08T05:42:20;18.17;;;12.05;;
63320;SDS011;49449;48.800;9.534;2024-03-08T05:44:48;15.77;;;11.70;;
63320;SDS011;49449;48.800;9.534;2024-03-08T05:47:17;14.43;;;11.20;;
63320;SDS011;49449;48.800;9.534;2024-03-08T05:49:45;15.75;;;12.15;;
63320;SDS011;49449;48.800;9.534;2024-03-08T05:52:12;16.90;;;12.88;;
63320;SDS011;49449;48.800;9.534;2024-03-08T05:54:41;17.75;;;14.23;;
63320;SDS011;49449;48.800;9.534;2024-03-08T05:57:10;15.70;;;12.57;;
63320;SDS011;49449;48.800;9.534;2024-03-08T05:59:38;15.85;;;11.45;;
63320;SDS011;49449;48.800;9.534;2024-03-08T06:02:05;16.58;;;12.70;;
63320;SDS011;49449;48.800;9.534;2024-03-08T06:04:37;16.55;;;11.10;;
63320;SDS011;49449;48.800;9.534;2024-03-08T06:07:06;16.77;;;12.07;;
63320;SDS011;49449;48.800;9.534;2024-03-08T06:09:38;15.68;;;12.23;;
63320;SDS011;49449;48.800;9.534;2024-03-08T06:12:06;18.98;;;14.05;;
63320;SDS011;49449;48.800;9.534;2024-03-08T06:14:37;18.42;;;14.15;;
63320;SDS011;49449;48.800;9.534;2024-03-08T06:17:05;17.25;;;12.18;;
63320;SDS011;49449;48.800;9.534;2024-03-08T06:19:33;17.95;;;12.68;;
63320;SDS011;49449;48.800;9.534;2024-03-08T06:22:04;16.95;;;12.80;;
63320;SDS011;49449;48.800;9.534;2024-03-08T06:24:32;19.13;;;13.40;;
63320;SDS011;49449;48.800;9.534;2024-03-08T06:27:02;20.20;;;14.07;;
63320;SDS011;49449;48.800;9.534;2024-03-08T06:29:30;17.95;;;14.30;;
63320;SDS011;49449;48.800;9.534;2024-03-08T06:31:58;18.92;;;13.75;;
63320;SDS011;49449;48.800;9.534;2024-03-08T06:34:26;18.50;;;12.38;;
63320;SDS011;49449;48.800;9.534;2024-03-08T06:36:54;18.23;;;12.73;;
63320;SDS011;49449;48.800;9.534;2024-03-08T06:39:28;19.42;;;14.65;;
63320;SDS011;49449;48.800;9.534;2024-03-08T06:41:57;21.63;;;15.63;;
63320;SDS011;49449;48.800;9.534;2024-03-08T06:44:26;17.05;;;12.90;;
63320;SDS011;49449;48.800;9.534;2024-03-08T06:46:53;19.27;;;15.05;;
63320;SDS011;49449;48.800;9.534;2024-03-08T06:49:25;19.10;;;11.95;;
63320;SDS011;49449;48.800;9.534;2024-03-08T06:51:53;18.10;;;14.57;;
63320;SDS011;49449;48.800;9.534;2024-03-08T06:54:21;19.02;;;13.77;;
63320;SDS011;49449;48.800;9.534;2024-03-08T06:56:50;20.17;;;14.55;;
63320;SDS011;49449;48.800;9.534;2024-03-08T06:59:18;19.33;;;13.82;;
63320;SDS011;49449;48.800;9.534;2024-03-08T07:01:46;20.98;;;15.45;;
63320;SDS011;49449;48.800;9.534;2024-03-08T07:04:14;20.48;;;15.25;;
63320;SDS011;49449;48.800;9.534;2024-03-08T07:06:42;19.60;;;13.80;;
63320;SDS011;49449;48.800;9.534;2024-03-08T07:09:10;19.58;;;14.75;;
63320;SDS011;49449;48.800;9.534;2024-03-08T07:11:38;18.73;;;14.85;;
63320;SDS011;49449;48.800;9.534;2024-03-08T07:14:09;19.02;;;14.00;;
63320;SDS011;49449;48.800;9.534;2024-03-08T07:16:37;17.45;;;12.00;;
63320;SDS011;49449;48.800;9.534;2024-03-08T07:19:08;18.33;;;13.63;;
63320;SDS011;49449;48.800;9.534;2024-03-08T07:21:36;20.95;;;15.48;;
63320;SDS011;49449;48.800;9.534;2024-03-08T07:24:04;20.55;;;14.60;;
63320;SDS011;49449;48.800;9.534;2024-03-08T07:26:50;19.63;;;14.00;;
63320;SDS011;49449;48.800;9.534;2024-03-08T07:29:19;21.52;;;15.48;;
63320;SDS011;49449;48.800;9.534;2024-03-08T07:31:47;19.67;;;15.40;;
63320;SDS011;49449;48.800;9.534;2024-03-08T07:34:22;20.35;;;15.75;;
63320;SDS011;49449;48.800;9.534;2024-03-08T07:36:50;18.00;;;13.52;;
63320;SDS011;49449;48.800;9.534;2024-03-08T07:39:18;21.30;;;15.10;;
63320;SDS011;49449;48.800;9.534;2024-03-08T07:41:45;21.67;;;15.13;;
63320;SDS011;49449;48.800;9.534;2024-03-08T07:44:17;21.15;;;14.27;;
63320;SDS011;49449;48.800;9.534;2024-03-08T07:46:46;21.88;;;15.35;;
63320;SDS011;49449;48.800;9.534;2024-03-08T07:49:14;19.98;;;14.50;;
63320;SDS011;49449;48.800;9.534;2024-03-08T07:51:41;20.23;;;14.60;;
63320;SDS011;49449;48.800;9.534;2024-03-08T07:54:09;20.05;;;14.88;;
63320;SDS011;49449;48.800;9.534;2024-03-08T07:56:37;21.33;;;15.23;;
63320;SDS011;49449;48.800;9.534;2024-03-08T07:59:05;20.65;;;15.32;;
63320;SDS011;49449;48.800;9.534;2024-03-08T08:01:33;20.25;;;13.27;;
63320;SDS011;49449;48.800;9.534;2024-03-08T08:04:02;21.05;;;14.85;;
63320;SDS011;49449;48.800;9.534;2024-03-08T08:06:30;18.17;;;12.98;;
63320;SDS011;49449;48.800;9.534;2024-03-08T08:08:59;20.88;;;14.02;;
63320;SDS011;49449;48.800;9.534;2024-03-08T08:11:28;19.98;;;14.75;;
63320;SDS011;49449;48.800;9.534;2024-03-08T08:13:56;19.38;;;14.10;;
63320;SDS011;49449;48.800;9.534;2024-03-08T08:16:25;20.05;;;14.32;;
63320;SDS011;49449;48.800;9.534;2024-03-08T08:18:55;21.13;;;13.82;;
63320;SDS011;49449;48.800;9.534;2024-03-08T08:21:25;20.73;;;14.85;;
63320;SDS011;49449;48.800;9.534;2024-03-08T08:23:53;21.58;;;14.50;;
63320;SDS011;49449;48.800;9.534;2024-03-08T08:26:21;22.65;;;15.30;;
63320;SDS011;49449;48.800;9.534;2024-03-08T08:28:48;22.15;;;15.52;;
63320;SDS011;49449;48.800;9.534;2024-03-08T08:31:16;20.33;;;14.40;;
63320;SDS011;49449;48.800;9.534;2024-03-08T08:33:45;22.48;;;15.43;;
63320;SDS011;49449;48.800;9.534;2024-03-08T08:36:15;21.40;;;14.95;;
63320;SDS011;49449;48.800;9.534;2024-03-08T08:38:44;19.75;;;13.70;;
63320;SDS011;49449;48.800;9.534;2024-03-08T08:41:13;21.60;;;15.55;;
63320;SDS011;49449;48.800;9.534;2024-03-08T08:43:40;22.00;;;14.82;;
63320;SDS011;49449;48.800;9.534;2024-03-08T08:46:12;18.10;;;13.77;;
63320;SDS011;49449;48.800;9.534;2024-03-08T08:48:40;20.63;;;14.57;;
63320;SDS011;49449;48.800;9.534;2024-03-08T08:51:09;18.67;;;12.20;;
63320;SDS011;49449;48.800;9.534;2024-03-08T08:53:38;20.20;;;13.82;;
63320;SDS011;49449;48.800;9.534;2024-03-08T08:56:10;21.83;;;14.27;;
63320;SDS011;49449;48.800;9.534;2024-03-08T08:58:39;20.13;;;14.23;;
63320;SDS011;49449;48.800;9.534;2024-03-08T09:01:08;20.13;;;14.88;;
63320;SDS011;49449;48.800;9.534;2024-03-08T09:03:38;19.45;;;13.68;;
63320;SDS011;49449;48.800;9.534;2024-03-08T09:06:07;21.52;;;14.80;;
63320;SDS011;49449;48.800;9.534;2024-03-08T09:08:38;20.35;;;14.98;;
63320;SDS011;49449;48.800;9.534;2024-03-08T09:11:06;19.85;;;12.70;;
63320;SDS011;49449;48.800;9.534;2024-03-08T09:13:35;20.27;;;14.38;;
63320;SDS011;49449;48.800;9.534;2024-03-08T09:16:04;19.73;;;12.65;;
63320;SDS011;49449;48.800;9.534;2024-03-08T09:18:33;21.27;;;13.15;;
63320;SDS011;49449;48.800;9.534;2024-03-08T09:21:01;21.77;;;14.93;;
63320;SDS011;49449;48.800;9.534;2024-03-08T09:23:29;24.67;;;14.70;;
63320;SDS011;49449;48.800;9.534;2024-03-08T09:25:57;23.95;;;15.13;;
63320;SDS011;49449;48.800;9.534;2024-03-08T09:28:25;20.77;;;15.15;;
63320;SDS011;49449;48.800;9.534;2024-03-08T09:30:55;22.63;;;14.93;;
63320;SDS011;49449;48.800;9.534;2024-03-08T09:35:53;21.60;;;14.63;;
63320;SDS011;49449;48.800;9.534;2024-03-08T09:38:23;23.08;;;15.55;;
63320;SDS011;49449;48.800;9.534;2024-03-08T09:40:52;20.70;;;14.07;;
63320;SDS011;49449;48.800;9.534;2024-03-08T09:43:22;23.88;;;15.30;;
63320;SDS011;49449;48.800;9.534;2024-03-08T09:45:50;21.90;;;13.27;;
63320;SDS011;49449;48.800;9.534;2024-03-08T09:48:20;22.92;;;15.75;;
63320;SDS011;49449;48.800;9.534;2024-03-08T09:50:49;21.58;;;15.00;;
63320;SDS011;49449;48.800;9.534;2024-03-08T09:53:17;23.65;;;15.13;;
63320;SDS011;49449;48.800;9.534;2024-03-08T09:55:45;20.35;;;14.45;;
63320;SDS011;49449;48.800;9.534;2024-03-08T09:58:16;20.98;;;14.55;;
63320;SDS011;49449;48.800;9.534;2024-03-08T10:01:02;22.52;;;15.00;;
63320;SDS011;49449;48.800;9.534;2024-03-08T10:03:32;23.25;;;14.73;;
63320;SDS011;49449;48.800;9.534;2024-03-08T10:06:01;24.75;;;15.48;;
63320;SDS011;49449;48.800;9.534;2024-03-08T10:08:29;21.50;;;13.73;;
63320;SDS011;49449;48.800;9.534;2024-03-08T10:10:57;18.45;;;12.48;;
63320;SDS011;49449;48.800;9.534;2024-03-08T10:13:25;18.95;;;14.27;;
63320;SDS011;49449;48.800;9.534;2024-03-08T10:15:54;20.60;;;14.27;;
63320;SDS011;49449;48.800;9.534;2024-03-08T10:18:22;22.75;;;14.48;;
63320;SDS011;49449;48.800;9.534;2024-03-08T10:21:04;22.67;;;14.85;;
63320;SDS011;49449;48.800;9.534;2024-03-08T10:23:33;22.77;;;15.27;;
63320;SDS011;49449;48.800;9.534;2024-03-08T10:26:11;22.58;;;14.60;;
63320;SDS011;49449;48.800;9.534;2024-03-08T10:28:41;22.75;;;13.65;;
63320;SDS011;49449;48.800;9.534;2024-03-08T10:31:10;21.13;;;14.32;;
63320;SDS011;49449;48.800;9.534;2024-03-08T10:33:39;22.73;;;14.82;;
63320;SDS011;49449;48.800;9.534;2024-03-08T10:36:08;22.63;;;15.05;;
63320;SDS011;49449;48.800;9.534;2024-03-08T10:38:37;21.17;;;14.40;;
63320;SDS011;49449;48.800;9.534;2024-03-08T10:41:07;23.45;;;15.88;;
63320;SDS011;49449;48.800;9.534;2024-03-08T10:43:39;21.10;;;13.18;;
63320;SDS011;49449;48.800;9.534;2024-03-08T10:46:28;23.90;;;15.15;;
63320;SDS011;49449;48.800;9.534;2024-03-08T10:49:01;22.65;;;15.05;;
63320;SDS011;49449;48.800;9.534;2024-03-08T10:51:33;21.55;;;15.00;;
63320;SDS011;49449;48.800;9.534;2024-03-08T10:54:02;20.35;;;14.25;;
63320;SDS011;49449;48.800;9.534;2024-03-08T10:56:32;21.25;;;14.35;;
63320;SDS011;49449;48.800;9.534;2024-03-08T10:58:59;21.50;;;15.32;;
63320;SDS011;49449;48.800;9.534;2024-03-08T11:01:30;23.77;;;16.20;;
63320;SDS011;49449;48.800;9.534;2024-03-08T11:03:58;24.10;;;16.20;;
63320;SDS011;49449;48.800;9.534;2024-03-08T11:06:29;21.35;;;13.85;;
63320;SDS011;49449;48.800;9.534;2024-03-08T11:09:00;20.50;;;13.52;;
63320;SDS011;49449;48.800;9.534;2024-03-08T11:11:28;21.05;;;13.70;;
63320;SDS011;49449;48.800;9.534;2024-03-08T11:14:01;22.02;;;14.63;;
63320;SDS011;49449;48.800;9.534;2024-03-08T11:16:36;22.92;;;13.80;;
63320;SDS011;49449;48.800;9.534;2024-03-08T11:19:22;18.00;;;12.55;;
63320;SDS011;49449;48.800;9.534;2024-03-08T11:22:00;21.80;;;13.27;;
63320;SDS011;49449;48.800;9.534;2024-03-08T11:24:37;24.40;;;16.88;;
63320;SDS011;49449;48.800;9.534;2024-03-08T11:27:07;21.83;;;15.00;;
63320;SDS011;49449;48.800;9.534;2024-03-08T11:29:36;22.83;;;14.68;;
63320;SDS011;49449;48.800;9.534;2024-03-08T11:32:10;23.73;;;15.50;;
63320;SDS011;49449;48.800;9.534;2024-03-08T11:34:40;22.95;;;15.10;;
63320;SDS011;49449;48.800;9.534;2024-03-08T11:37:11;20.10;;;13.55;;
63320;SDS011;49449;48.800;9.534;2024-03-08T11:39:47;21.15;;;14.27;;
63320;SDS011;49449;48.800;9.534;2024-03-08T11:42:15;19.25;;;13.80;;
63320;SDS011;49449;48.800;9.534;2024-03-08T11:44:45;22.55;;;14.52;;
63320;SDS011;49449;48.800;9.534;2024-03-08T11:47:14;17.40;;;11.55;;
63320;SDS011;49449;48.800;9.534;2024-03-08T11:49:43;21.38;;;15.05;;
63320;SDS011;49449;48.800;9.534;2024-03-08T11:52:12;20.75;;;13.88;;
63320;SDS011;49449;48.800;9.534;2024-03-08T11:54:40;21.05;;;14.07;;
63320;SDS011;49449;48.800;9.534;2024-03-08T11:57:09;22.35;;;14.20;;
63320;SDS011;49449;48.800;9.534;2024-03-08T11:59:38;20.40;;;14.35;;
63320;SDS011;49449;48.800;9.534;2024-03-08T12:02:06;19.25;;;12.13;;
63320;SDS011;49449;48.800;9.534;2024-03-08T12:04:36;20.42;;;14.30;;
63320;SDS011;49449;48.800;9.534;2024-03-08T12:07:09;20.58;;;14.30;;
63320;SDS011;49449;48.800;9.534;2024-03-08T12:09:38;21.75;;;14.75;;
63320;SDS011;49449;48.800;9.534;2024-03-08T12:12:06;19.55;;;13.73;;
63320;SDS011;49449;48.800;9.534;2024-03-08T12:14:36;21.95;;;14.93;;
63320;SDS011;49449;48.800;9.534;2024-03-08T12:17:04;21.25;;;14.00;;
63320;SDS011;49449;48.800;9.534;2024-03-08T12:19:32;19.83;;;13.32;;
63320;SDS011;49449;48.800;9.534;2024-03-08T12:22:06;20.67;;;13.77;;
63320;SDS011;49449;48.800;9.534;2024-03-08T12:24:36;20.05;;;13.45;;
63320;SDS011;49449;48.800;9.534;2024-03-08T12:27:17;21.23;;;13.23;;
63320;SDS011;49449;48.800;9.534;2024-03-08T12:29:46;21.48;;;14.68;;
63320;SDS011;49449;48.800;9.534;2024-03-08T12:32:15;19.92;;;14.10;;
63320;SDS011;49449;48.800;9.534;2024-03-08T12:34:43;20.73;;;14.70;;
63320;SDS011;49449;48.800;9.534;2024-03-08T12:37:12;19.23;;;13.75;;
63320;SDS011;49449;48.800;9.534;2024-03-08T12:39:40;21.08;;;14.07;;
63320;SDS011;49449;48.800;9.534;2024-03-08T12:42:09;22.00;;;13.80;;
63320;SDS011;49449;48.800;9.534;2024-03-08T12:44:37;20.25;;;13.48;;
63320;SDS011;49449;48.800;9.534;2024-03-08T12:47:10;19.25;;;13.50;;
63320;SDS011;49449;48.800;9.534;2024-03-08T12:49:38;18.25;;;12.15;;
63320;SDS011;49449;48.800;9.534;2024-03-08T12:52:08;19.70;;;13.93;;
63320;SDS011;49449;48.800;9.534;2024-03-08T12:57:05;18.80;;;12.38;;
63320;SDS011;49449;48.800;9.534;2024-03-08T12:59:34;21.38;;;14.52;;
63320;SDS011;49449;48.800;9.534;2024-03-08T13:02:02;17.38;;;12.50;;
63320;SDS011;49449;48.800;9.534;2024-03-08T13:04:33;18.65;;;12.73;;
63320;SDS011;49449;48.800;9.534;2024-03-08T13:07:02;18.05;;;12.55;;
63320;SDS011;49449;48.800;9.534;2024-03-08T13:09:30;20.65;;;13.57;;
63320;SDS011;49449;48.800;9.534;2024-03-08T13:11:59;17.83;;;12.10;;
63320;SDS011;49449;48.800;9.534;2024-03-08T13:14:27;19.92;;;14.95;;
63320;SDS011;49449;48.800;9.534;2024-03-08T13:16:58;20.58;;;13.52;;
63320;SDS011;49449;48.800;9.534;2024-03-08T13:19:25;19.73;;;13.88;;
63320;SDS011;49449;48.800;9.534;2024-03-08T13:21:55;19.15;;;13.57;;
63320;SDS011;49449;48.800;9.534;2024-03-08T13:24:23;18.80;;;13.52;;
63320;SDS011;49449;48.800;9.534;2024-03-08T13:26:51;16.98;;;12.45;;
63320;SDS011;49449;48.800;9.534;2024-03-08T13:29:19;16.60;;;12.13;;
63320;SDS011;49449;48.800;9.534;2024-03-08T13:31:47;18.80;;;12.35;;
63320;SDS011;49449;48.800;9.534;2024-03-08T13:34:18;19.00;;;13.63;;
63320;SDS011;49449;48.800;9.534;2024-03-08T13:36:55;21.10;;;14.40;;
63320;SDS011;49449;48.800;9.534;2024-03-08T13:39:29;17.73;;;12.40;;
63320;SDS011;49449;48.800;9.534;2024-03-08T13:42:03;14.55;;;9.65;;
63320;SDS011;49449;48.800;9.534;2024-03-08T13:44:35;18.42;;;13.77;;
63320;SDS011;49449;48.800;9.534;2024-03-08T13:47:03;19.65;;;13.73;;
63320;SDS011;49449;48.800;9.534;2024-03-08T13:49:32;19.15;;;13.73;;
63320;SDS011;49449;48.800;9.534;2024-03-08T13:52:01;17.77;;;12.90;;
63320;SDS011;49449;48.800;9.534;2024-03-08T13:54:28;22.38;;;13.82;;
63320;SDS011;49449;48.800;9.534;2024-03-08T13:56:57;19.88;;;13.98;;
63320;SDS011;49449;48.800;9.534;2024-03-08T13:59:25;19.70;;;13.45;;
63320;SDS011;49449;48.800;9.534;2024-03-08T14:01:55;21.73;;;14.60;;
63320;SDS011;49449;48.800;9.534;2024-03-08T14:04:24;20.80;;;13.98;;
63320;SDS011;49449;48.800;9.534;2024-03-08T14:06:53;18.35;;;12.68;;
63320;SDS011;49449;48.800;9.534;2024-03-08T14:09:25;18.85;;;13.18;;
63320;SDS011;49449;48.800;9.534;2024-03-08T14:11:55;18.40;;;13.25;;
63320;SDS011;49449;48.800;9.534;2024-03-08T14:14:23;18.52;;;13.23;;
63320;SDS011;49449;48.800;9.534;2024-03-08T14:16:51;19.02;;;12.90;;
63320;SDS011;49449;48.800;9.534;2024-03-08T14:19:20;20.77;;;13.73;;
63320;SDS011;49449;48.800;9.534;2024-03-08T14:21:48;17.30;;;13.15;;
63320;SDS011;49449;48.800;9.534;2024-03-08T14:24:17;19.00;;;13.02;;
63320;SDS011;49449;48.800;9.534;2024-03-08T14:26:46;16.70;;;11.43;;
63320;SDS011;49449;48.800;9.534;2024-03-08T14:29:15;20.20;;;14.25;;
63320;SDS011;49449;48.800;9.534;2024-03-08T14:31:44;18.60;;;12.57;;
63320;SDS011;49449;48.800;9.534;2024-03-08T14:34:13;18.52;;;13.52;;
63320;SDS011;49449;48.800;9.534;2024-03-08T14:36:41;19.63;;;12.80;;
63320;SDS011;49449;48.800;9.534;2024-03-08T14:39:09;16.85;;;11.70;;